North Chittenango, New York
Current Conditions -  °F | °C
As of 11:10 PM on Thursday 18 Dec 2014 (Local Time) from KSYR Reporting Station
Light Snow Light Snow  
Wind Chill: 20°   Ceiling: 1600
Heat Index: 30°   Visibility: 9mi
Dew Point: 27°   Wind: 13mph
Humidity: 88%   Direction: 290°WNW
Pressure: 30.01"   Gusts: NA
Location:  43.0618°N, 75.8688°W
Report Text: KSYR 190410Z 29011KT 9SM -FZDZSN BKN016 OVC021 M01/M03 A3001 RMK AO2 FZDZB09 P0000 T10111028
Loading
Personal Weather Stations






























Interactive Weather Map New forecast layout! Learn more

10-Day Weather Forecast

Advertisements
Track Severe Weather on mobile